Time;durP1;ratioP1;P1;durP2;ratioP2;P2;SDS_P1;SDS_P2;PMS_P1;PMS_P2;Temp;Humidity;BMP_temperature;BMP_pressure;BME280_temperature;BME280_humidity;BME280_pressure;Samples;Min_cycle;Max_cycle;Signal;HPM_P1;HPM_P2
2022/02/07 00:00:18;;;;;;;4.18;1.40;;;;;;;26.04;29.32;95603.75;5042585;28;20381;-29
2022/02/07 00:05:27;;;;;;;3.60;1.25;;;;;;;26.03;29.13;95638.84;5044680;28;20028;-26
2022/02/07 00:07:53;;;;;;;2.80;1.20;;;;;;;26.03;29.11;95632.72;5043945;28;20029;-33
2022/02/07 00:10:19;;;;;;;4.35;1.20;;;;;;;26.03;29.25;95630.97;5042284;28;20937;-28
2022/02/07 00:12:45;;;;;;;4.40;1.10;;;;;;;26.03;29.14;95617.84;5043081;28;20033;-29
2022/02/07 00:15:11;;;;;;;3.65;1.20;;;;;;;26.02;29.04;95624.03;5044586;28;20399;-31
2022/02/07 00:17:37;;;;;;;4.05;1.30;;;;;;;26.02;28.99;95650.28;5038314;28;20098;-29
2022/02/07 00:20:07;;;;;;;4.30;1.20;;;;;;;26.02;29.05;95665.19;5038959;28;20028;-29
2022/02/07 00:22:33;;;;;;;3.30;1.20;;;;;;;26.02;28.93;95654.69;5038366;28;20070;-30
2022/02/07 00:24:58;;;;;;;2.65;1.00;;;;;;;26.02;29.10;95647.66;5044971;28;20029;-29
2022/02/07 00:27:24;;;;;;;3.08;1.17;;;;;;;26.02;29.04;95641.56;5034840;28;22079;-26
2022/02/07 00:29:49;;;;;;;3.03;1.27;;;;;;;26.01;28.96;95656.47;5041332;28;20342;-27
2022/02/07 00:32:14;;;;;;;1.85;0.88;;;;;;;26.01;29.05;95661.72;5045549;28;20029;-29
2022/02/07 00:34:40;;;;;;;4.00;1.10;;;;;;;26.01;29.04;95661.72;5043910;28;20037;-28
2022/02/07 00:37:05;;;;;;;2.45;1.00;;;;;;;26.00;28.89;95665.28;5046756;28;20032;-29
2022/02/07 00:39:39;;;;;;;2.88;0.90;;;;;;;26.01;28.93;95684.53;5042722;28;20458;-30
2022/02/07 00:42:07;;;;;;;3.25;1.10;;;;;;;26.00;29.05;95696.81;5044375;28;20466;-29
2022/02/07 00:44:33;;;;;;;2.72;0.70;;;;;;;25.99;28.93;95713.50;5044228;28;20041;-29
2022/02/07 00:47:05;;;;;;;4.38;1.00;;;;;;;26.00;28.80;95722.22;5045029;28;20117;-28
2022/02/07 00:49:30;;;;;;;3.10;0.90;;;;;;;25.97;28.90;95720.63;5041494;28;20028;-27
2022/02/07 00:51:56;;;;;;;1.90;1.02;;;;;;;25.98;28.85;95756.47;5044678;28;20064;-32
2022/02/07 00:54:21;;;;;;;2.85;1.00;;;;;;;25.97;28.83;95770.50;5042474;28;20419;-28
2022/02/07 00:56:47;;;;;;;4.25;1.40;;;;;;;25.96;28.97;95742.59;5046687;28;20097;-29
2022/02/07 00:59:12;;;;;;;3.42;0.90;;;;;;;25.97;28.97;95723.25;5046306;28;20051;-29
2022/02/07 01:01:37;;;;;;;3.55;1.00;;;;;;;25.97;28.78;95718.00;5042528;28;20121;-28
2022/02/07 01:04:03;;;;;;;2.53;0.90;;;;;;;25.96;28.93;95730.31;5041446;28;20043;-28
2022/02/07 01:06:28;;;;;;;3.60;1.02;;;;;;;25.95;28.86;95731.25;5050153;28;20024;-27
2022/02/07 01:09:09;;;;;;;2.67;0.80;;;;;;;25.96;28.94;95732.09;5040275;28;20021;-28
2022/02/07 01:14:44;;;;;;;3.58;0.98;;;;;;;25.94;28.84;95734.00;5044852;28;20446;-30
2022/02/07 01:20:09;;;;;;;2.75;0.70;;;;;;;25.93;28.98;95733.16;5045980;28;20128;-28
2022/02/07 01:52:12;;;;;;;2.00;0.70;;;;;;;25.89;28.88;95854.22;5043154;28;20574;-30
2022/02/07 01:54:42;;;;;;;1.25;0.80;;;;;;;25.88;28.83;95860.38;5042027;28;20249;-27
2022/02/07 01:57:10;;;;;;;2.67;0.50;;;;;;;25.88;28.57;95876.13;5043665;28;20090;-31
2022/02/07 01:59:36;;;;;;;1.33;0.60;;;;;;;25.86;28.60;95899.03;5041990;28;20037;-29
2022/02/07 02:02:01;;;;;;;2.38;0.65;;;;;;;25.86;28.52;95912.16;5042919;28;20109;-26
2022/02/07 02:04:27;;;;;;;7.35;0.82;;;;;;;25.84;28.76;95914.88;5045351;28;20660;-29
2022/02/07 02:06:52;;;;;;;1.30;0.50;;;;;;;25.84;28.76;95907.00;5040337;28;20020;-27
2022/02/07 02:09:18;;;;;;;1.60;0.70;;;;;;;25.84;28.75;95912.25;5047211;28;20025;-32
2022/02/07 02:11:45;;;;;;;5.63;0.80;;;;;;;25.84;28.81;95922.75;5041187;28;20039;-27
2022/02/07 02:14:39;;;;;;;2.50;0.80;;;;;;;25.85;28.64;95939.34;5042928;28;20033;-29
2022/02/07 02:33:25;;;;;;;2.08;0.68;;;;;;;25.82;28.74;95988.47;5044035;28;20105;-29
2022/02/07 02:38:41;;;;;;;2.83;0.57;;;;;;;25.82;28.81;95998.97;5043348;28;20028;-32
2022/02/07 02:46:50;;;;;;;2.40;0.57;;;;;;;25.81;28.60;96027.94;5023387;28;20049;-29
2022/02/07 02:49:15;;;;;;;2.17;0.52;;;;;;;25.81;28.58;96028.78;5043470;28;20106;-28
2022/02/07 02:51:40;;;;;;;0.95;0.60;;;;;;;25.81;28.64;96018.28;5038290;28;20048;-28
2022/02/07 02:54:06;;;;;;;1.20;0.60;;;;;;;25.81;28.63;96027.94;5042191;28;20043;-25
2022/02/07 02:56:32;;;;;;;1.17;0.50;;;;;;;25.80;28.65;96032.34;5042318;28;20037;-28
2022/02/07 02:58:58;;;;;;;0.68;0.43;;;;;;;25.80;28.63;96055.97;5041094;28;20048;-28
2022/02/07 03:01:23;;;;;;;2.35;0.70;;;;;;;25.80;28.56;96066.47;5041839;28;20047;-29
2022/02/07 03:03:49;;;;;;;2.22;0.50;;;;;;;25.81;28.60;96076.03;5039369;28;20625;-28
2022/02/07 03:06:14;;;;;;;1.50;0.60;;;;;;;25.80;28.52;96079.59;5043006;28;20029;-26
2022/02/07 03:08:40;;;;;;;1.02;0.50;;;;;;;25.81;28.46;96086.53;5041977;28;20025;-27
2022/02/07 03:11:20;;;;;;;1.45;0.52;;;;;;;25.81;28.54;96083.03;5042786;28;20751;-24
2022/02/07 03:18:59;;;;;;;0.75;0.40;;;;;;;25.80;28.41;96111.09;5042954;28;20090;-26
2022/02/07 03:21:24;;;;;;;1.33;0.55;;;;;;;25.80;28.59;96103.22;5042887;28;20033;-30
2022/02/07 03:23:50;;;;;;;1.05;0.40;;;;;;;25.79;28.52;96112.03;5039478;28;20029;-28
2022/02/07 03:26:18;;;;;;;0.50;0.32;;;;;;;25.79;28.33;96130.41;5043987;28;20040;-26
2022/02/07 03:28:43;;;;;;;0.98;0.55;;;;;;;25.78;28.44;96123.47;5045274;28;20021;-29
2022/02/07 03:31:09;;;;;;;0.95;0.52;;;;;;;25.78;28.38;96128.72;5043834;28;20527;-29
2022/02/07 03:33:36;;;;;;;0.75;0.45;;;;;;;25.77;28.41;96121.78;5045213;28;20395;-30
2022/02/07 03:36:01;;;;;;;1.40;0.40;;;;;;;25.78;28.38;96126.09;5044806;28;20584;-27
2022/02/07 03:38:26;;;;;;;0.50;0.40;;;;;;;25.77;28.66;96085.03;5045773;28;20028;-28
2022/02/07 03:40:52;;;;;;;0.75;0.38;;;;;;;25.76;28.34;96117.47;5044857;28;20036;-27
2022/02/07 03:43:17;;;;;;;0.93;0.50;;;;;;;25.78;28.32;96133.97;5040934;28;20032;-31
2022/02/07 03:45:43;;;;;;;3.95;0.70;;;;;;;25.76;28.46;96142.88;5042832;28;20029;-28
2022/02/07 03:48:08;;;;;;;1.17;0.50;;;;;;;25.77;28.35;96168.16;5041268;28;20459;-29
2022/02/07 03:50:34;;;;;;;0.47;0.32;;;;;;;25.77;28.35;96208.38;5041990;28;20089;-29
2022/02/07 03:52:59;;;;;;;3.70;0.55;;;;;;;25.76;28.30;96246.06;5047318;28;20878;-27
2022/02/07 03:55:24;;;;;;;1.15;0.40;;;;;;;25.78;28.30;96319.47;5047398;28;20025;-29
2022/02/07 03:57:50;;;;;;;2.55;0.50;;;;;;;25.76;28.43;96327.44;5046086;28;20040;-29
2022/02/07 04:00:16;;;;;;;2.33;0.43;;;;;;;25.77;28.35;96336.13;5044980;28;20078;-28
2022/02/07 04:02:45;;;;;;;2.95;0.75;;;;;;;25.76;28.34;96330.06;5046171;28;20111;-28
2022/02/07 04:07:54;;;;;;;2.10;0.50;;;;;;;25.76;28.30;96334.44;5040151;28;20395;-26
2022/02/07 04:10:21;;;;;;;1.00;0.40;;;;;;;25.74;28.39;96331.91;5043378;28;20033;-30
2022/02/07 04:12:53;;;;;;;1.08;0.50;;;;;;;25.72;28.23;96328.56;5046477;28;20530;-27
2022/02/07 04:15:20;;;;;;;1.00;0.40;;;;;;;25.74;28.35;96339.78;5044975;28;20076;-28
2022/02/07 04:17:52;;;;;;;0.70;0.40;;;;;;;25.74;28.35;96358.16;5046197;28;20853;-27
2022/02/07 04:20:18;;;;;;;1.17;0.52;;;;;;;25.74;28.31;96362.59;5052974;28;20799;-30
2022/02/07 04:22:44;;;;;;;0.95;0.30;;;;;;;25.74;28.25;96368.66;5045120;28;20025;-28
2022/02/07 04:25:09;;;;;;;1.38;0.50;;;;;;;25.73;28.18;96377.47;5045801;28;20094;-25
2022/02/07 04:27:35;;;;;;;1.23;0.40;;;;;;;25.73;28.14;96401.09;5044604;28;20101;-26
2022/02/07 04:30:00;;;;;;;0.55;0.40;;;;;;;25.73;28.35;96402.88;5029022;28;20110;-25
2022/02/07 04:32:25;;;;;;;0.65;0.50;;;;;;;25.72;28.15;96402.03;5027349;28;20122;-26
2022/02/07 04:34:51;;;;;;;1.63;0.40;;;;;;;25.72;28.32;96415.16;5040834;28;20029;-26
2022/02/07 04:37:17;;;;;;;4.45;0.60;;;;;;;25.72;28.18;96423.03;5038849;28;20098;-26
2022/02/07 04:39:42;;;;;;;1.02;0.50;;;;;;;25.71;28.31;96429.22;5033376;28;20025;-24
2022/02/07 04:42:10;;;;;;;2.90;0.70;;;;;;;25.71;28.36;96429.22;5032625;28;20052;-28
2022/02/07 04:44:46;;;;;;;0.57;0.38;;;;;;;25.72;28.16;96443.16;5032863;28;20616;-28
2022/02/07 04:47:34;;;;;;;1.25;0.47;;;;;;;25.71;28.13;96463.34;5033720;28;20029;-28
2022/02/07 05:00:29;;;;;;;1.05;0.40;;;;;;;25.69;28.07;96486.19;5034836;28;20244;-26
2022/02/07 05:03:14;;;;;;;;;;;;;;;25.68;28.26;96500.25;5033745;28;20035;-27
2022/02/07 05:13:52;;;;;;;0.85;0.40;;;;;;;25.65;28.24;96526.66;5032461;28;20042;-28
2022/02/07 05:16:28;;;;;;;2.70;0.35;;;;;;;25.64;28.04;96540.72;5036466;28;20709;-28
2022/02/07 05:18:57;;;;;;;1.08;0.35;;;;;;;25.63;28.10;96552.16;5032464;28;21327;-28
2022/02/07 05:21:23;;;;;;;0.52;0.40;;;;;;;25.61;28.14;96562.72;5036800;28;20107;-29
2022/02/07 05:23:49;;;;;;;1.83;0.40;;;;;;;25.62;28.17;96572.28;5043790;28;20029;-32
2022/02/07 05:26:14;;;;;;;0.80;0.40;;;;;;;25.63;28.15;96581.00;5034152;28;20135;-26
2022/02/07 05:28:39;;;;;;;0.43;0.22;;;;;;;25.62;28.33;96581.94;5035448;28;20462;-28
2022/02/07 05:31:05;;;;;;;0.80;0.30;;;;;;;25.62;28.14;96582.78;5041425;28;20041;-31
2022/02/07 05:33:30;;;;;;;0.93;0.35;;;;;;;25.62;28.27;96595.06;5039392;28;20021;-26
2022/02/07 05:35:56;;;;;;;0.60;0.20;;;;;;;25.62;28.21;96601.16;5044705;28;20035;-27
2022/02/07 05:38:21;;;;;;;1.33;0.40;;;;;;;25.62;28.26;96605.56;5034356;28;20036;-27
2022/02/07 05:40:55;;;;;;;0.40;0.20;;;;;;;25.61;28.22;96599.47;5031857;28;20350;-27
2022/02/07 05:43:20;;;;;;;0.85;0.20;;;;;;;25.61;28.05;96624.84;5031901;28;20045;-29
2022/02/07 05:45:45;;;;;;;0.77;0.40;;;;;;;25.61;28.05;96617.84;5048568;28;20196;-27
2022/02/07 05:48:11;;;;;;;1.15;0.38;;;;;;;25.62;28.17;96631.81;5030333;28;20839;-28
2022/02/07 05:50:36;;;;;;;2.20;0.57;;;;;;;25.62;28.22;96637.06;5027304;28;20142;-29
2022/02/07 05:53:02;;;;;;;4.18;1.13;;;;;;;25.59;27.83;96643.28;5034624;28;20523;-29
2022/02/07 05:55:27;;;;;;;2.17;0.82;;;;;;;25.57;27.71;96638.16;5029068;28;20479;-26
2022/02/07 05:57:53;;;;;;;1.15;0.40;;;;;;;25.57;27.78;96635.53;5034503;28;20040;-31
2022/02/07 06:00:18;;;;;;;2.08;0.70;;;;;;;25.55;27.96;96642.59;5032942;28;20832;-28
2022/02/07 06:02:44;;;;;;;2.85;0.60;;;;;;;25.55;27.95;96655.72;5031321;28;20032;-26
2022/02/07 06:05:09;;;;;;;1.40;0.60;;;;;;;25.56;28.14;96644.31;5033123;28;20081;-28
2022/02/07 06:07:35;;;;;;;0.98;0.50;;;;;;;25.56;28.24;96665.31;5027342;28;20044;-28
2022/02/07 06:10:00;;;;;;;1.63;0.43;;;;;;;25.57;28.12;96676.66;5030406;28;20032;-30
2022/02/07 06:12:25;;;;;;;4.75;0.40;;;;;;;25.57;28.02;96677.50;5031407;28;20032;-32
2022/02/07 06:14:52;;;;;;;2.67;0.50;;;;;;;25.57;28.12;96677.50;5031305;28;20055;-31
2022/02/07 06:17:18;;;;;;;1.20;0.40;;;;;;;25.57;28.05;96677.50;5033373;28;20021;-27
2022/02/07 06:19:43;;;;;;;1.58;0.40;;;;;;;25.59;28.06;96689.69;5030743;28;20142;-26
2022/02/07 06:22:08;;;;;;;0.30;0.30;;;;;;;25.59;28.14;96700.19;5035596;28;20025;-26
2022/02/07 06:24:34;;;;;;;0.50;0.32;;;;;;;25.59;28.27;96705.44;5048322;28;20445;-28
2022/02/07 06:26:59;;;;;;;2.53;0.43;;;;;;;25.60;28.22;96718.50;5042105;28;20028;-33
2022/02/07 06:29:25;;;;;;;1.08;0.25;;;;;;;25.59;28.09;96726.44;5044173;28;20032;-27
2022/02/07 06:31:50;;;;;;;1.13;0.50;;;;;;;25.61;28.25;96735.06;5042056;28;20740;-29
2022/02/07 06:34:15;;;;;;;1.48;0.40;;;;;;;25.60;28.12;96741.25;5041466;28;20506;-33
2022/02/07 06:36:41;;;;;;;0.88;0.38;;;;;;;25.59;28.21;96737.75;5058110;28;20056;-28
2022/02/07 06:39:06;;;;;;;1.27;0.45;;;;;;;25.60;27.98;96749.13;5040717;28;20048;-29
2022/02/07 06:41:32;;;;;;;1.10;0.40;;;;;;;25.61;28.05;96746.41;5039375;28;20048;-30
2022/02/07 06:43:57;;;;;;;0.20;0.20;;;;;;;25.61;28.17;96756.06;5043161;28;20033;-28
2022/02/07 06:46:22;;;;;;;1.52;0.40;;;;;;;25.61;28.15;96761.28;5050117;28;20753;-30
2022/02/07 06:48:48;;;;;;;0.73;0.30;;;;;;;25.62;28.18;96761.22;5042439;28;20052;-33
2022/02/07 06:51:13;;;;;;;1.85;0.50;;;;;;;25.62;28.14;96763.84;5037711;28;20033;-29
2022/02/07 06:53:39;;;;;;;0.85;0.30;;;;;;;25.62;28.24;96778.75;5052352;28;20025;-30
2022/02/07 06:56:04;;;;;;;3.33;0.57;;;;;;;25.62;27.97;96784.00;5030758;28;20024;-27
2022/02/07 06:58:30;;;;;;;0.82;0.40;;;;;;;25.63;28.14;96788.31;5033525;28;20118;-29
2022/02/07 07:00:55;;;;;;;0.70;0.45;;;;;;;25.63;28.04;96786.53;5030920;28;20036;-28
2022/02/07 07:03:21;;;;;;;1.13;0.40;;;;;;;25.63;28.20;96799.66;5031185;28;20039;-28
2022/02/07 07:05:49;;;;;;;1.85;0.50;;;;;;;25.64;28.12;96808.38;5033526;28;20964;-24
2022/02/07 07:08:15;;;;;;;0.32;0.30;;;;;;;25.64;28.08;96819.75;5028834;28;20028;-28
2022/02/07 07:10:40;;;;;;;0.90;0.40;;;;;;;25.65;28.01;96820.56;5034690;28;20098;-30
2022/02/07 07:13:13;;;;;;;0.38;0.30;;;;;;;25.65;28.17;96836.31;5035665;28;20041;-27
2022/02/07 07:16:01;;;;;;;1.85;0.50;;;;;;;25.66;28.03;96838.03;5034869;28;20088;-31
2022/02/07 07:18:26;;;;;;;8.43;0.50;;;;;;;25.65;28.11;96846.81;5034709;28;20218;-30
2022/02/07 07:20:51;;;;;;;1.48;0.63;;;;;;;25.65;28.07;96859.94;5036270;28;20029;-29
2022/02/07 07:23:17;;;;;;;5.90;0.90;;;;;;;25.66;28.11;96865.09;5034425;28;20020;-29
2022/02/07 07:25:45;;;;;;;8.05;0.73;;;;;;;25.66;28.11;96865.09;5032301;28;20033;-28
2022/02/07 07:28:13;;;;;;;4.88;1.10;;;;;;;25.68;28.03;96872.91;5037211;28;20024;-26
2022/02/07 07:30:44;;;;;;;1.95;0.50;;;;;;;25.68;28.18;96879.03;5041051;28;20032;-29
2022/02/07 07:33:14;;;;;;;3.05;0.70;;;;;;;25.68;28.07;96883.41;5046917;28;20037;-30
2022/02/07 07:35:39;;;;;;;4.57;0.70;;;;;;;25.68;28.23;96884.28;5038817;28;20024;-30
2022/02/07 07:38:05;;;;;;;2.40;0.60;;;;;;;25.68;28.27;96884.28;5034610;28;20063;-29
2022/02/07 07:40:30;;;;;;;1.65;0.40;;;;;;;25.69;28.17;96888.59;5041690;28;20512;-32
2022/02/07 07:42:56;;;;;;;13.20;0.70;;;;;;;25.69;28.26;96890.34;5035304;28;20629;-32
2022/02/07 07:45:26;;;;;;;6.70;0.52;;;;;;;25.70;28.15;96886.78;5034494;28;20025;-29
2022/02/07 07:47:56;;;;;;;3.60;0.60;;;;;;;25.67;28.23;96892.22;5032754;28;23573;-28
2022/02/07 07:50:28;;;;;;;2.35;0.50;;;;;;;25.72;28.20;96895.44;5028008;28;20143;-27
2022/02/07 08:03:18;;;;;;;2.80;0.70;;;;;;;25.75;28.28;96900.56;5031906;28;20059;-31
2022/02/07 08:05:48;;;;;;;3.35;0.68;;;;;;;25.76;28.30;96910.13;5033052;28;20029;-29
2022/02/07 08:08:32;;;;;;;5.50;0.50;;;;;;;25.77;28.32;96914.44;5028312;28;20024;-29
2022/02/07 08:11:04;;;;;;;2.80;0.90;;;;;;;25.78;28.32;96916.13;5034409;28;20247;-30
2022/02/07 08:13:32;;;;;;;1.98;0.70;;;;;;;25.79;28.19;96920.47;5034943;28;21134;-29
2022/02/07 08:15:57;;;;;;;2.03;0.70;;;;;;;25.80;28.29;96919.53;5032348;28;20540;-28
2022/02/07 08:18:22;;;;;;;2.03;0.70;;;;;;;25.80;28.31;96919.53;5030641;28;20642;-26
2022/02/07 08:20:48;;;;;;;3.10;0.32;;;;;;;25.81;28.33;96931.72;5031651;28;20029;-29
2022/02/07 08:23:13;;;;;;;1.02;0.60;;;;;;;25.83;28.13;96935.09;5032566;28;20040;-31
2022/02/07 08:25:39;;;;;;;1.52;0.50;;;;;;;25.83;28.31;96940.34;5031925;28;20033;-28
2022/02/07 08:28:06;;;;;;;2.30;0.60;;;;;;;25.85;28.14;96952.59;5032708;28;20403;-29
2022/02/07 08:30:31;;;;;;;1.73;0.55;;;;;;;25.86;28.14;96954.28;5033589;28;20033;-26
2022/02/07 08:32:58;;;;;;;3.47;0.68;;;;;;;25.88;28.39;96957.66;5035260;28;20097;-28
2022/02/07 08:35:24;;;;;;;3.10;0.88;;;;;;;25.89;28.32;96964.63;5032024;28;21067;-27
2022/02/07 08:37:49;;;;;;;2.45;0.73;;;;;;;25.91;28.43;96978.50;5033342;28;20025;-30
2022/02/07 08:40:15;;;;;;;3.03;0.80;;;;;;;25.92;28.39;96974.94;5031933;28;20762;-29
2022/02/07 08:42:41;;;;;;;1.90;0.77;;;;;;;25.93;28.40;96988.00;5051123;28;20029;-29
2022/02/07 08:45:07;;;;;;;2.03;0.70;;;;;;;25.95;28.45;96985.31;5031408;28;20758;-30
2022/02/07 08:47:32;;;;;;;2.45;0.63;;;;;;;25.95;28.41;96995.81;5032849;28;20557;-31
2022/02/07 08:49:58;;;;;;;3.15;0.60;;;;;;;25.96;28.44;96997.50;5030261;28;20033;-24
2022/02/07 08:52:24;;;;;;;2.53;0.90;;;;;;;25.97;28.51;97014.94;5033045;28;20093;-30
2022/02/07 08:54:55;;;;;;;2.75;1.00;;;;;;;25.98;28.55;97021.91;5030606;28;22640;-28
2022/02/07 09:00:04;;;;;;;1.80;0.75;;;;;;;26.01;28.62;97036.66;5032573;28;20083;-26
2022/02/07 09:07:52;;;;;;;1.42;0.55;;;;;;;26.04;28.39;97053.13;5032248;28;20218;-27
2022/02/07 09:10:18;;;;;;;24.70;1.90;;;;;;;26.05;27.71;97054.81;5029304;28;20033;-25
2022/02/07 09:12:46;;;;;;;4.03;0.80;;;;;;;26.03;28.13;97056.66;5034850;28;20048;-30
2022/02/07 09:17:56;;;;;;;10.55;2.15;;;;;;;25.82;23.02;97053.34;5027140;28;20640;-28
2022/02/07 09:20:22;;;;;;;5.15;1.90;;;;;;;25.55;22.40;97062.44;5037405;28;20049;-28
2022/02/07 09:22:48;;;;;;;5.22;1.80;;;;;;;25.45;22.88;97079.53;5035644;28;20536;-27
2022/02/07 09:25:14;;;;;;;6.18;1.58;;;;;;;25.35;23.22;97080.91;5034214;28;20033;-28
2022/02/07 09:27:39;;;;;;;8.13;1.75;;;;;;;25.29;23.67;97088.13;5034728;28;20151;-30
2022/02/07 09:30:06;;;;;;;4.63;1.50;;;;;;;25.26;24.01;97098.78;5028723;28;21042;-25
2022/02/07 09:32:33;;;;;;;8.50;1.70;;;;;;;25.27;24.10;97095.22;5040358;28;20945;-28
2022/02/07 09:34:58;;;;;;;6.68;1.50;;;;;;;25.25;24.63;97107.53;5038246;28;20523;-30
2022/02/07 09:37:23;;;;;;;4.03;1.63;;;;;;;25.31;24.67;97106.41;5043229;28;20043;-27
2022/02/07 09:39:49;;;;;;;6.25;1.38;;;;;;;25.36;24.93;97116.72;5034824;28;20028;-30
2022/02/07 09:42:18;;;;;;;4.65;1.40;;;;;;;25.39;24.80;97117.41;5036054;28;20422;-29
2022/02/07 09:44:49;;;;;;;5.90;1.80;;;;;;;25.43;24.98;97115.47;5038257;28;20093;-30
2022/02/07 09:47:15;;;;;;;4.20;1.55;;;;;;;25.46;25.03;97120.59;5032699;28;20025;-30
2022/02/07 09:49:42;;;;;;;3.42;1.20;;;;;;;25.49;25.00;97125.72;5025034;28;20067;-28
2022/02/07 09:52:09;;;;;;;7.20;1.70;;;;;;;25.53;25.18;97136.91;5030962;28;20502;-29
2022/02/07 09:54:35;;;;;;;3.72;1.35;;;;;;;25.53;25.35;97136.91;5037454;28;20826;-28
2022/02/07 09:57:00;;;;;;;4.35;1.70;;;;;;;25.57;25.52;97138.50;5030460;28;20025;-28
2022/02/07 09:59:28;;;;;;;3.72;1.75;;;;;;;25.62;25.68;97144.38;5031094;28;20028;-31
2022/02/07 10:01:57;;;;;;;7.55;2.53;;;;;;;25.72;25.66;97157.06;5030404;28;20037;-29
2022/02/07 10:04:30;;;;;;;7.03;2.90;;;;;;;25.83;25.79;97165.28;5030366;28;20031;-32
2022/02/07 10:07:16;;;;;;;14.98;3.75;;;;;;;25.95;25.68;97174.34;5029465;28;20165;-29
2022/02/07 10:38:58;;;;;;;7.75;2.88;;;;;;;27.28;25.24;97205.53;5041883;28;20048;-27
2022/02/07 10:41:58;;;;;;;7.85;3.15;;;;;;;27.36;25.33;97211.25;5035012;28;20029;-28
2022/02/07 10:44:30;;;;;;;8.77;2.63;;;;;;;27.43;25.48;97222.28;5038891;28;20059;-31
2022/02/07 10:46:56;;;;;;;8.02;2.80;;;;;;;27.49;25.40;97221.94;5039105;28;20510;-31
2022/02/07 10:49:21;;;;;;;5.40;2.72;;;;;;;27.55;25.26;97225.19;5036412;28;20045;-29
2022/02/07 10:51:46;;;;;;;9.10;2.40;;;;;;;27.60;25.38;97234.53;5039645;28;20028;-28
2022/02/07 10:54:13;;;;;;;6.43;2.42;;;;;;;27.64;25.49;97238.75;5034685;28;20033;-25
2022/02/07 10:56:42;;;;;;;4.95;2.30;;;;;;;27.69;25.50;97238.47;5035331;28;20068;-27
2022/02/07 10:59:16;;;;;;;6.40;2.60;;;;;;;27.72;25.38;97242.75;5041143;28;20021;-28
2022/02/07 11:04:20;;;;;;;9.07;2.53;;;;;;;27.82;25.50;97258.88;5035594;28;20029;-27
2022/02/07 11:06:48;;;;;;;7.25;2.40;;;;;;;27.84;25.24;97271.03;5037563;28;20047;-30
2022/02/07 11:09:27;;;;;;;12.10;2.13;;;;;;;27.88;25.36;97285.72;5038735;28;20033;-29
2022/02/07 11:12:22;;;;;;;5.80;2.10;;;;;;;27.91;25.15;97295.25;5039001;28;20086;-27
2022/02/07 11:26:02;;;;;;;6.88;2.50;;;;;;;28.05;25.31;97323.50;5026949;28;20530;-27
2022/02/07 11:28:17;;;;;;;5.45;2.10;;;;;;;28.09;25.02;97325.03;5026562;28;20498;-28
2022/02/07 11:30:46;;;;;;;6.45;2.30;;;;;;;28.11;25.22;97327.59;5033810;28;20040;-27
2022/02/07 11:33:39;;;;;;;5.10;2.47;;;;;;;28.12;24.99;97340.69;5040110;28;20032;-26
2022/02/07 11:36:12;;;;;;;6.68;1.67;;;;;;;28.15;25.03;97345.75;5026302;28;20358;-25
2022/02/07 11:38:54;;;;;;;5.90;2.10;;;;;;;28.16;25.11;97333.44;5026151;28;20915;-24
2022/02/07 11:41:19;;;;;;;6.13;2.13;;;;;;;28.20;25.06;97355.19;5029216;28;20764;-26
2022/02/07 11:43:45;;;;;;;4.97;2.10;;;;;;;28.22;25.23;97345.44;5030547;28;20028;-28
2022/02/07 11:46:13;;;;;;;4.32;2.00;;;;;;;28.26;25.12;97362.81;5034945;28;20025;-28
2022/02/07 11:48:49;;;;;;;4.45;2.00;;;;;;;28.28;25.02;97371.50;5027081;28;20066;-28
2022/02/07 11:51:18;;;;;;;4.78;1.90;;;;;;;28.29;25.31;97381.09;5026969;28;20037;-29
2022/02/07 11:53:47;;;;;;;4.95;1.92;;;;;;;28.31;25.20;97381.88;5032156;28;20032;-30
2022/02/07 11:56:18;;;;;;;4.53;1.83;;;;;;;28.34;25.27;97386.13;5035951;28;20024;-33
2022/02/07 11:59:09;;;;;;;4.40;2.00;;;;;;;28.35;25.31;97396.59;5033393;28;20072;-30
2022/02/07 12:01:46;;;;;;;6.32;2.17;;;;;;;28.37;25.20;97402.63;5031696;28;20506;-26
2022/02/07 12:04:12;;;;;;;3.88;1.70;;;;;;;28.37;25.03;97405.25;5031859;28;20550;-28
2022/02/07 12:06:37;;;;;;;5.72;2.10;;;;;;;28.38;25.17;97406.94;5031020;28;20087;-25
2022/02/07 12:09:03;;;;;;;9.75;2.55;;;;;;;28.40;24.91;97406.88;5035543;28;20036;-27
2022/02/07 12:11:46;;;;;;;5.88;2.10;;;;;;;28.40;24.97;97415.63;5034339;28;20025;-29
2022/02/07 12:14:30;;;;;;;7.93;2.05;;;;;;;28.40;24.90;97420.91;5028786;28;20112;-31
2022/02/07 12:16:56;;;;;;;9.65;2.17;;;;;;;28.39;24.90;97416.56;5035950;28;20032;-32
2022/02/07 12:19:31;;;;;;;6.55;2.20;;;;;;;28.40;24.72;97422.69;5035388;28;20087;-30
2022/02/07 12:21:56;;;;;;;6.75;2.13;;;;;;;28.39;24.94;97427.13;5023983;28;20487;-29
2022/02/07 12:25:08;;;;;;;4.68;2.10;;;;;;;28.39;24.94;97426.25;5019692;28;20055;-29
2022/02/07 12:27:39;;;;;;;11.15;2.60;;;;;;;28.39;25.00;97431.53;5045978;28;20634;-32
2022/02/07 12:30:16;;;;;;;8.55;2.20;;;;;;;28.39;25.12;97421.84;5032543;28;20043;-31
2022/02/07 12:32:43;;;;;;;10.15;2.15;;;;;;;28.39;24.91;97432.41;5044146;28;20032;-26
2022/02/07 12:35:09;;;;;;;6.78;2.13;;;;;;;28.40;25.01;97434.09;5040302;28;20605;-27
2022/02/07 12:37:37;;;;;;;9.95;2.30;;;;;;;28.41;25.00;97440.19;5039211;28;20033;-29
2022/02/07 12:40:04;;;;;;;7.78;2.25;;;;;;;28.42;24.95;97441.91;5033722;28;20028;-32
2022/02/07 12:42:31;;;;;;;5.90;2.20;;;;;;;28.42;25.00;97437.47;5038757;28;20029;-29
2022/02/07 12:45:00;;;;;;;7.10;2.35;;;;;;;28.44;24.81;97442.69;5042476;28;20021;-29
2022/02/07 12:47:25;;;;;;;6.70;2.40;;;;;;;28.45;24.91;97446.19;5043500;28;20032;-33
2022/02/07 12:49:54;;;;;;;6.47;2.20;;;;;;;28.47;24.86;97457.47;5029057;28;20222;-32
2022/02/07 12:52:20;;;;;;;6.60;2.13;;;;;;;28.49;24.81;97458.25;5031405;28;20029;-28
2022/02/07 12:54:45;;;;;;;7.38;2.60;;;;;;;28.50;24.92;97459.94;5035990;28;20051;-31
2022/02/07 12:57:10;;;;;;;6.93;2.25;;;;;;;28.47;24.60;97460.09;5030417;28;20491;-27
2022/02/07 12:59:36;;;;;;;5.40;2.03;;;;;;;28.52;24.71;97465.97;5018527;28;20033;-32
2022/02/07 13:02:01;;;;;;;6.05;2.30;;;;;;;28.52;24.94;97464.22;5039955;28;20021;-24
2022/02/07 13:04:27;;;;;;;5.65;2.53;;;;;;;28.54;24.77;97464.13;5047268;28;20849;-29
2022/02/07 13:06:54;;;;;;;7.80;3.78;;;;;;;28.54;25.00;97467.59;5028829;28;20111;-28
2022/02/07 13:09:27;;;;;;;8.05;4.63;;;;;;;28.55;24.88;97471.09;5019952;28;20040;-33
2022/02/07 13:12:12;;;;;;;14.50;10.15;;;;;;;28.55;24.99;97479.88;5024786;28;20037;-26
2022/02/07 13:14:45;;;;;;;16.52;13.57;;;;;;;28.56;24.97;97480.69;5041082;28;20521;-33
2022/02/07 13:17:11;;;;;;;27.67;22.20;;;;;;;28.55;25.16;97489.56;5037905;28;20519;-32
2022/02/07 13:19:37;;;;;;;39.35;35.25;;;;;;;28.56;25.34;97496.53;5031102;28;20029;-30
2022/02/07 13:22:03;;;;;;;43.38;38.70;;;;;;;28.54;24.74;97488.69;5024005;28;20035;-32
2022/02/07 13:24:31;;;;;;;73.63;66.10;;;;;;;28.53;25.51;97487.00;5028515;28;20037;-30
2022/02/07 13:26:58;;;;;;;76.75;69.32;;;;;;;28.54;25.67;97487.84;5024229;28;20297;-32
2022/02/07 13:29:28;;;;;;;92.63;83.85;;;;;;;28.52;25.82;97484.44;5026518;28;20659;-32
2022/02/07 13:31:59;;;;;;;117.75;106.10;;;;;;;28.51;25.88;97488.00;5023950;28;20029;-32
2022/02/07 13:34:26;;;;;;;123.83;111.33;;;;;;;28.51;25.95;97478.34;5018870;28;20021;-29
2022/02/07 13:36:52;;;;;;;129.13;116.18;;;;;;;28.51;25.91;97483.59;5019737;28;20025;-29
2022/02/07 13:39:19;;;;;;;124.07;111.63;;;;;;;28.51;25.68;97482.75;5015520;28;20076;-24
2022/02/07 13:42:06;;;;;;;144.95;129.63;;;;;;;28.51;23.07;97480.09;5009720;28;20112;-28
2022/02/07 13:44:31;;;;;;;64.95;58.17;;;;;;;28.47;23.10;97465.38;5007298;28;20172;-27
2022/02/07 13:47:02;;;;;;;57.50;48.38;;;;;;;28.40;22.34;97459.59;5008233;28;20082;-29
2022/02/07 13:49:28;;;;;;;42.78;29.23;;;;;;;28.29;21.57;97463.66;5010108;28;20148;-31
2022/02/07 13:51:53;;;;;;;25.98;17.85;;;;;;;28.16;20.87;97468.69;5004145;28;20029;-26
2022/02/07 13:54:31;;;;;;;20.92;15.55;;;;;;;28.02;20.24;97473.81;5031809;28;20025;-29
2022/02/07 13:56:58;;;;;;;27.35;19.13;;;;;;;27.90;20.58;97485.84;5021923;28;20032;-29
2022/02/07 13:59:24;;;;;;;26.60;22.90;;;;;;;27.80;20.88;97490.72;5033884;28;20021;-28
2022/02/07 14:01:50;;;;;;;27.73;21.00;;;;;;;27.74;21.48;97498.94;5021363;28;20025;-28
2022/02/07 14:04:20;;;;;;;28.55;21.13;;;;;;;27.68;21.58;97494.81;5020041;28;20064;-27
2022/02/07 14:07:17;;;;;;;26.40;21.15;;;;;;;27.63;22.02;97502.97;5019227;28;20094;-30
2022/02/07 14:09:42;;;;;;;22.27;19.85;;;;;;;27.59;22.19;97508.41;5014972;28;20045;-31